Main page
METAR-TAF:

METAR-TAF

Airports :

Mécheria Airport

Mécheria, Algeria

latitude: 34-56N, longitude: 000-26W, elevation: 1149 m

Current weather observation

The report was made 59 minutes ago, at 12:00 UTC
Calm wind
Temperature 28°C
Humidity 48%
Pressure 1023 hPa
Visibility 10 km or more
no clouds below 1500 m and no cumulonimbus

METAR: DAAY 201200Z 00000KT CAVOK 28/16 Q1023

Time: 13:59 (12:59 UTC)

Forecast

The report was made 4 hours and 59 minutes ago, at 08:00 UTC
Forecast valid from 20 at 09 UTC to 20 at 18 UTC
Wind 2 kt from variable directions
Visibility: 8000 m
Few clouds at a height of 3000 ft
Becoming
from 20 at 10 UTC to 20 at 13 UTC
Wind 12 kt from the North/Northeast
Probability 30% :
Temporary
from 20 at 14 UTC to 20 at 18 UTC
Scattered clouds at a height of 2600 ft
Few clouds at a height of 3000 ft, Cumulonimbus.
Broken clouds at a height of 10000 ft
thunderstorm, light rain

TAF: DAAY 200800Z 2009/2018 VRB02KT 8000 FEW030 BECMG 2010/2013 02012KT PROB30 TEMPO 2014/2018 -TSRA SCT026 FEW030CB BKN100

Weather observations and forecasts of more than 4000 airports (METAR and TAF reports).

The available stations are represented by yellow and red dots on the map.

Hover mouse over dot to see the name of the station.

Then click to see weather observations and forecasts.

To change the map : click on the green buttons with a black cross to zoom in, on the green button with a dash to zoom out, or on the green arrows for adjacent maps.


METAR-TAF: